Weather History for Colby, KS

Change the Weather History Date:

Wednesday, October 17, 2012

  Actual Average (KGLD) Record (KGLD)
Temperature  
Mean Temperature 48 °F 52 °F  
Max Temperature 62 °F 66 °F 96 °F (1926)
Min Temperature 35 °F 37 °F 18 °F (1948)
Degree Days  
Heating Degree Days 16 14  
Month to date heating degree days 186  
Since 1 July heating degree days 310  
Cooling Degree Days 0 0  
Month to date cooling degree days 5  
Year to date cooling degree days 938  
Moisture  
Dew Point 32 °F    
Average Humidity 47    
Maximum Humidity 76    
Minimum Humidity 25    
Precipitation  
Precipitation 0.00 in 0.05 in 2.30 in (1965)
Month to date precipitation 0.80  
Year to date precipitation 17.92  
Snow  
Snow - 0.10 in - ()
Month to date snowfall 0.8  
Since 1 July snowfall 1.2  
Since 1 September snowfall 1.2  
Snow Depth -    
Sea Level Pressure  
Sea Level Pressure 29.75 in    
Wind  
Wind Speed 18 mph ()    
Max Wind Speed 37 mph    
Max Gust Speed 47 mph    
Visibility 10.0 miles    
Events      
T = Trace of Precipitation, MM = Missing Value Source: Averaged Metar Reports

Daily Weather History Graph

Daily Weather History Graph

Search for Another Location

Airport:

Trip Planner

Search our weather history database for the weather conditions in past years. The results will help you decide how hot, cold, wet, or windy it might be!

Date:

Astronomy

Oct. 17, 2012 Rise Set
Actual Time 7:56 AM CDT 7:01 PM CDT
Civil Twilight 7:29 AM CDT 7:28 PM CDT
Nautical Twilight 6:58 AM CDT 7:59 PM CDT
Astronomical Twilight 6:27 AM CDT 8:30 PM CDT
Moon 10:32 AM CDT (10/17) 8:40 PM CDT (10/17)
Length of Visible Light 11h 59m
Length of Day
11h 04m
Waxing Crescent, 7% of the Moon is Illuminated
Oct 17
Waxing Crescent
Oct 21
First Quarter
Oct 29
Full
Nov 6
Last Quarter
Nov 13
New

Hourly Weather History & Observations

Time (CDT) Temp. Windchill Dew Point Humidity Pressure Visibility Wind Dir Wind Speed Gust Speed Precip Events Conditions
12:15 AM 59.0 °F - 44.6 °F 59% 29.50 in 10.0 mi SE 3.5 mph - N/A   Clear
12:35 AM 59.0 °F - 44.6 °F 59% 29.52 in 10.0 mi North 8.1 mph - N/A   Clear
12:55 AM 60.8 °F - 44.6 °F 55% 29.53 in 10.0 mi North 4.6 mph - N/A   Clear
1:15 AM 60.8 °F - 44.6 °F 55% 29.56 in 10.0 mi NW 10.4 mph - N/A   Scattered Clouds
1:35 AM 62.6 °F - 44.6 °F 52% 29.58 in 10.0 mi NNW 21.9 mph 26.5 mph N/A   Scattered Clouds
1:55 AM 62.6 °F - 44.6 °F 52% 29.58 in 10.0 mi NNW 26.5 mph 40.3 mph N/A   Scattered Clouds
2:15 AM 60.8 °F - 44.6 °F 55% 29.57 in 10.0 mi NW 20.7 mph 29.9 mph N/A   Clear
2:35 AM 60.8 °F - 42.8 °F 52% 29.59 in 10.0 mi NW 19.6 mph 23.0 mph N/A   Clear
2:55 AM 60.8 °F - 42.8 °F 52% 29.59 in 10.0 mi NW 21.9 mph 26.5 mph N/A   Scattered Clouds
3:15 AM 60.8 °F - 42.8 °F 52% 29.59 in 10.0 mi NW 15.0 mph - N/A   Mostly Cloudy
3:35 AM 60.8 °F - 42.8 °F 52% 29.58 in 10.0 mi NW 12.7 mph - N/A   Mostly Cloudy
3:55 AM 60.8 °F - 42.8 °F 52% 29.61 in 10.0 mi NW 36.8 mph 44.9 mph N/A   Overcast
4:15 AM 55.4 °F - 46.4 °F 72% 29.61 in 10.0 mi NNW 25.3 mph 36.8 mph N/A   Overcast
5:15 AM 53.6 °F - 42.8 °F 67% 29.64 in 10.0 mi NNW 20.7 mph 26.5 mph N/A   Clear
5:35 AM 51.8 °F - 42.8 °F 71% 29.64 in 10.0 mi NW 19.6 mph 25.3 mph N/A   Clear
5:55 AM 50.0 °F - 42.8 °F 76% 29.65 in 10.0 mi NW 18.4 mph 25.3 mph N/A   Clear
6:15 AM 50.0 °F - 41.0 °F 71% 29.65 in 10.0 mi NW 17.3 mph - N/A   Clear
6:35 AM 50.0 °F - 37.4 °F 62% 29.66 in 10.0 mi NW 19.6 mph 24.2 mph N/A   Clear
6:55 AM 48.2 °F - 37.4 °F 66% 29.69 in 10.0 mi NW 12.7 mph - N/A   Clear
7:15 AM 46.4 °F 40.4 °F 37.4 °F 71% 29.70 in 10.0 mi NW 13.8 mph - N/A   Clear
7:35 AM 46.4 °F 40.1 °F 35.6 °F 66% 29.71 in 10.0 mi NW 15.0 mph - N/A   Clear
7:55 AM 46.4 °F 39.8 °F 33.8 °F 62% 29.72 in 10.0 mi NW 16.1 mph - N/A   Clear
8:15 AM 46.4 °F 39.8 °F 33.8 °F 62% 29.72 in 10.0 mi NW 16.1 mph - N/A   Clear
8:35 AM 46.4 °F 40.4 °F 33.8 °F 62% 29.73 in 10.0 mi NW 13.8 mph 18.4 mph N/A   Clear
8:55 AM 50.0 °F - 33.8 °F 54% 29.75 in 10.0 mi NW 24.2 mph - N/A   Clear
9:15 AM 51.8 °F - 32.0 °F 47% 29.76 in 10.0 mi NW 29.9 mph 38.0 mph N/A   Clear
9:35 AM 53.6 °F - 32.0 °F 44% 29.77 in 10.0 mi NW 32.2 mph 40.3 mph N/A   Scattered Clouds
9:55 AM 51.8 °F - 30.2 °F 44% 29.79 in 10.0 mi NW 28.8 mph 35.7 mph N/A   Overcast
10:15 AM 51.8 °F - 30.2 °F 44% 29.80 in 10.0 mi NW 29.9 mph 35.7 mph N/A   Overcast
10:35 AM 51.8 °F - 30.2 °F 44% 29.80 in 10.0 mi NW 36.8 mph 43.7 mph N/A   Overcast
10:55 AM 53.6 °F - 28.4 °F 38% 29.81 in 10.0 mi NNW 35.7 mph 42.6 mph N/A   Mostly Cloudy
11:35 AM 55.4 °F - 30.2 °F 38% 29.82 in 10.0 mi NW 27.6 mph 42.6 mph N/A   Mostly Cloudy
11:55 AM 57.2 °F - 30.2 °F 36% 29.80 in 10.0 mi NW 31.1 mph 41.4 mph N/A   Mostly Cloudy
12:15 PM 55.4 °F - 30.2 °F 38% 29.80 in 10.0 mi NNW 36.8 mph 41.4 mph N/A   Mostly Cloudy
12:35 PM 57.2 °F - 28.4 °F 33% 29.81 in 10.0 mi NW 34.5 mph 43.7 mph N/A   Scattered Clouds
12:55 PM 59.0 °F - 30.2 °F 34% 29.80 in 10.0 mi NW 34.5 mph 42.6 mph N/A   Clear
1:15 PM 59.0 °F - 28.4 °F 31% 29.80 in 10.0 mi NW 35.7 mph 44.9 mph N/A   Clear
1:35 PM 59.0 °F - 28.4 °F 31% 29.80 in 10.0 mi NW 31.1 mph 42.6 mph N/A   Clear
1:55 PM 59.0 °F - 26.6 °F 29% 29.80 in 10.0 mi NNW 33.4 mph 42.6 mph N/A   Clear
2:15 PM 59.0 °F - 26.6 °F 29% 29.80 in 10.0 mi NW 36.8 mph 42.6 mph N/A   Clear
2:35 PM 59.0 °F - 26.6 °F 29% 29.80 in 10.0 mi NW 32.2 mph 47.2 mph N/A   Clear
2:55 PM 57.2 °F - 26.6 °F 31% 29.80 in 10.0 mi NW 28.8 mph 43.7 mph N/A   Clear
3:15 PM 59.0 °F - 26.6 °F 29% 29.80 in 10.0 mi NW 35.7 mph 43.7 mph N/A   Scattered Clouds
3:35 PM 59.0 °F - 26.6 °F 29% 29.80 in 10.0 mi NW 29.9 mph 44.9 mph N/A   Scattered Clouds
3:55 PM 57.2 °F - 26.6 °F 31% 29.80 in 10.0 mi NW 20.7 mph 40.3 mph N/A   Scattered Clouds
4:15 PM 59.0 °F - 24.8 °F 27% 29.80 in 10.0 mi NNW 26.5 mph 36.8 mph N/A   Scattered Clouds
4:35 PM 59.0 °F - 26.6 °F 29% 29.80 in 10.0 mi NW 31.1 mph 38.0 mph N/A   Scattered Clouds
4:55 PM 60.8 °F - 26.6 °F 27% 29.80 in 10.0 mi NW 29.9 mph 38.0 mph N/A   Scattered Clouds
5:15 PM 59.0 °F - 23.0 °F 25% 29.81 in 10.0 mi NW 26.5 mph 35.7 mph N/A   Scattered Clouds
5:35 PM 59.0 °F - 26.6 °F 29% 29.81 in 10.0 mi NW 26.5 mph 33.4 mph N/A   Clear
5:55 PM 57.2 °F - 23.0 °F 27% 29.82 in 10.0 mi NNW 21.9 mph 32.2 mph N/A   Scattered Clouds
6:15 PM 55.4 °F - 23.0 °F 29% 29.81 in 10.0 mi NNW 18.4 mph 27.6 mph N/A   Scattered Clouds
6:35 PM 55.4 °F - 23.0 °F 29% 29.82 in 10.0 mi NNW 11.5 mph 20.7 mph N/A   Clear
6:55 PM 53.6 °F - 23.0 °F 30% 29.82 in 10.0 mi NNW 12.7 mph - N/A   Clear
7:15 PM 51.8 °F - 23.0 °F 33% 29.82 in 10.0 mi NNW 8.1 mph - N/A   Clear
7:35 PM 46.4 °F 42.4 °F 21.2 °F 37% 29.84 in 10.0 mi NNW 8.1 mph - N/A   Clear
7:55 PM 44.6 °F 40.7 °F 21.2 °F 39% 29.84 in 10.0 mi NW 6.9 mph - N/A   Clear
8:15 PM 42.8 °F 37.0 °F 21.2 °F 42% 29.85 in 10.0 mi NW 10.4 mph - N/A   Clear
8:35 PM 41.0 °F 35.8 °F 21.2 °F 45% 29.86 in 10.0 mi NW 8.1 mph - N/A   Clear
8:55 PM 39.2 °F 33.6 °F 23.0 °F 52% 29.86 in 10.0 mi NW 8.1 mph - N/A   Clear
9:35 PM 37.4 °F 30.8 °F 23.0 °F 56% 29.88 in 10.0 mi NW 9.2 mph - N/A   Clear
9:55 PM 37.4 °F 30.8 °F 23.0 °F 56% 29.89 in 10.0 mi NW 9.2 mph - N/A   Clear
10:15 PM 37.4 °F 30.3 °F 23.0 °F 56% 29.90 in 10.0 mi NW 10.4 mph - N/A   Clear
10:55 PM 35.6 °F 28.6 °F 23.0 °F 60% 29.91 in 10.0 mi West 9.2 mph - N/A   Clear
11:15 PM 35.6 °F 29.2 °F 23.0 °F 60% 29.91 in 10.0 mi West 8.1 mph - N/A   Clear
11:35 PM 35.6 °F 28.6 °F 23.0 °F 60% 29.92 in 10.0 mi West 9.2 mph - N/A   Clear
11:55 PM 35.6 °F 27.5 °F 23.0 °F 60% 29.93 in 10.0 mi WNW 11.5 mph - N/A   Clear